Time;durP1;ratioP1;P1;durP2;ratioP2;P2;SDS_P1;SDS_P2;PMS_P1;PMS_P2;Temp;Humidity;BMP_temperature;BMP_pressure;BME280_temperature;BME280_humidity;BME280_pressure;Samples;Min_cycle;Max_cycle;Signal;HPM_P1;HPM_P2
2021/03/07 00:02:09;;;;;;;13.35;6.32;;;;;;;-1.12;77.12;99246.13;5051953;28;20116;-74
2021/03/07 00:04:35;;;;;;;9.45;6.07;;;;;;;-1.08;77.28;99247.41;5052503;28;20123;-74
2021/03/07 00:07:01;;;;;;;17.30;7.22;;;;;;;-1.09;77.20;99251.13;5050915;28;20104;-74
2021/03/07 00:09:27;;;;;;;13.95;7.00;;;;;;;-1.15;77.33;99235.78;5050386;28;20052;-74
2021/03/07 00:11:52;;;;;;;12.07;8.23;;;;;;;-1.18;77.50;99235.31;5052296;28;20035;-74
2021/03/07 00:14:18;;;;;;;;;;;;;;;-1.27;78.21;99231.91;5052094;28;20037;-74
2021/03/07 00:16:43;;;;;;;16.10;7.38;;;;;;;-1.32;78.33;99236.19;5051650;28;19920;-74
2021/03/07 00:19:09;;;;;;;11.63;7.55;;;;;;;-1.23;78.14;99237.75;5052885;28;20035;-73
2021/03/07 00:21:34;;;;;;;16.65;8.20;;;;;;;-1.33;78.14;99232.66;5051494;28;20546;-74
2021/03/07 00:24:00;;;;;;;14.23;9.15;;;;;;;-1.45;78.72;99233.34;5051514;28;20025;-74
2021/03/07 00:26:25;;;;;;;12.88;8.93;;;;;;;-1.38;78.77;99227.00;5050922;28;20470;-74
2021/03/07 00:28:51;;;;;;;;;;;;;;;-1.41;77.91;99224.72;5053292;28;20025;-74
2021/03/07 00:31:16;;;;;;;15.48;9.02;;;;;;;-1.47;78.06;99225.47;5052619;28;19938;-74
2021/03/07 00:33:41;;;;;;;;;;;;;;;-1.39;78.53;99222.69;5053615;28;20021;-74
2021/03/07 00:36:07;;;;;;;17.48;8.88;;;;;;;-1.42;78.20;99220.38;5052606;28;20435;-74
2021/03/07 00:38:32;;;;;;;;;;;;;;;-1.41;78.48;99219.34;5053373;28;20055;-73
2021/03/07 00:40:57;;;;;;;17.35;10.27;;;;;;;-1.43;78.84;99213.34;5050100;28;20448;-74
2021/03/07 00:43:23;;;;;;;17.13;9.05;;;;;;;-1.23;78.00;99210.91;5033445;28;20383;-74
2021/03/07 00:45:48;;;;;;;;;;;;;;;-1.27;77.84;99215.81;5034656;28;20025;-74
2021/03/07 00:48:13;;;;;;;15.88;8.25;;;;;;;-1.26;78.04;99212.13;5033705;28;19959;-74
2021/03/07 00:50:39;;;;;;;17.42;9.07;;;;;;;-1.47;78.96;99211.25;5033794;28;20375;-75
2021/03/07 00:53:04;;;;;;;17.75;9.75;;;;;;;-1.54;79.81;99210.31;5036135;28;20048;-75
2021/03/07 00:55:30;;;;;;;13.43;7.82;;;;;;;-1.73;80.67;99199.16;5035928;28;20059;-75
2021/03/07 00:57:55;;;;;;;15.38;7.93;;;;;;;-1.83;81.39;99203.97;5035290;28;20033;-74
2021/03/07 01:00:28;;;;;;;13.85;8.38;;;;;;;-2.00;82.18;99181.03;5034086;28;20079;-74
2021/03/07 01:02:53;;;;;;;15.52;9.63;;;;;;;-1.85;82.18;99194.44;5034882;28;20017;-74
2021/03/07 01:05:20;;;;;;;15.40;9.45;;;;;;;-1.94;82.23;99187.53;5033542;28;20033;-74
2021/03/07 01:07:45;;;;;;;17.08;8.95;;;;;;;-2.07;82.61;99184.66;5033165;28;20059;-74
2021/03/07 01:10:11;;;;;;;19.02;10.20;;;;;;;-1.99;83.04;99181.88;5030800;28;20021;-74
2021/03/07 01:12:36;;;;;;;17.88;9.80;;;;;;;-2.01;82.87;99174.03;5064202;28;20030;-74
2021/03/07 01:15:02;;;;;;;;;;;;;;;-1.79;82.30;99170.41;5033154;28;20091;-74
2021/03/07 01:17:28;;;;;;;14.20;7.72;;;;;;;-1.75;81.73;99168.16;5032493;28;19919;-74
2021/03/07 01:19:53;;;;;;;;;;;;;;;-1.79;81.96;99164.22;5032994;28;20032;-74
2021/03/07 01:22:18;;;;;;;14.93;7.43;;;;;;;-1.95;82.21;99159.06;5032177;28;20427;-74
2021/03/07 01:24:44;;;;;;;;;;;;;;;-1.88;82.35;99168.81;5032309;28;20105;-74
2021/03/07 01:27:09;;;;;;;17.67;9.30;;;;;;;-1.98;82.91;99170.13;5031997;28;20373;-74
2021/03/07 01:29:34;;;;;;;;;;;;;;;-1.99;82.95;99155.06;5032264;28;20018;-74
2021/03/07 01:32:00;;;;;;;13.30;7.45;;;;;;;-1.99;82.70;99155.06;5031829;28;20385;-74
2021/03/07 01:34:25;;;;;;;17.25;7.82;;;;;;;-1.97;83.02;99147.69;5032668;28;20029;-76
2021/03/07 01:36:50;;;;;;;15.15;9.10;;;;;;;-1.91;82.56;99142.38;5034092;28;20395;-74
2021/03/07 01:39:16;;;;;;;19.48;9.18;;;;;;;-1.95;82.53;99137.59;5032104;28;20029;-74
2021/03/07 01:41:41;;;;;;;10.55;7.20;;;;;;;-2.01;82.79;99135.69;5031537;28;20026;-74
2021/03/07 01:44:07;;;;;;;19.45;8.40;;;;;;;-2.05;83.17;99134.38;5031258;28;20055;-74
2021/03/07 01:46:32;;;;;;;14.98;9.10;;;;;;;-1.95;82.81;99129.56;5030080;28;20032;-73
2021/03/07 01:48:58;;;;;;;15.85;9.27;;;;;;;-1.88;82.77;99133.16;5031543;28;20032;-74
2021/03/07 01:51:23;;;;;;;21.85;10.13;;;;;;;-1.95;82.51;99126.88;5031374;28;20056;-74
2021/03/07 01:53:50;;;;;;;16.05;8.32;;;;;;;-2.06;82.85;99121.97;5063221;28;20163;-74
2021/03/07 01:56:16;;;;;;;12.60;7.97;;;;;;;-1.84;82.25;99116.50;5031356;28;20033;-74
2021/03/07 01:58:45;;;;;;;12.98;7.78;;;;;;;-2.00;82.79;99123.91;5031318;28;20135;-73
2021/03/07 02:01:10;;;;;;;15.48;8.80;;;;;;;-2.06;82.71;99109.41;5031908;28;20025;-74
2021/03/07 02:03:36;;;;;;;19.58;9.13;;;;;;;-2.06;83.06;99097.88;5031726;28;20029;-74
2021/03/07 02:06:01;;;;;;;17.77;9.57;;;;;;;-2.05;82.81;99097.69;5031070;28;20024;-74
2021/03/07 02:08:27;;;;;;;15.63;9.40;;;;;;;-2.12;83.03;99090.56;5029814;28;20130;-74
2021/03/07 02:10:55;;;;;;;16.75;9.30;;;;;;;-2.24;83.86;99093.75;5029795;28;20026;-75
2021/03/07 02:13:31;;;;;;;15.40;9.52;;;;;;;-2.20;84.19;99087.00;5030651;28;20710;-74
2021/03/07 02:16:02;;;;;;;16.48;9.35;;;;;;;-2.31;83.91;99084.78;5030915;28;20401;-74
2021/03/07 02:18:28;;;;;;;18.58;9.55;;;;;;;-2.47;84.88;99089.47;5041276;28;20033;-74
2021/03/07 02:21:12;;;;;;;17.55;10.45;;;;;;;-2.37;84.78;99087.34;5030591;28;20041;-74
2021/03/07 02:24:02;;;;;;;13.90;8.70;;;;;;;-2.38;85.00;99075.00;5040153;28;20043;-74
2021/03/07 02:26:28;;;;;;;14.40;8.60;;;;;;;-2.46;85.38;99077.75;5050479;28;20047;-74
2021/03/07 02:28:54;;;;;;;18.48;11.45;;;;;;;-2.57;85.55;99065.69;5050222;28;20021;-74
2021/03/07 02:31:22;;;;;;;14.77;9.23;;;;;;;-2.55;85.80;99069.00;5050969;28;20547;-74
2021/03/07 02:33:50;;;;;;;16.65;8.63;;;;;;;-2.68;86.03;99063.44;5050870;28;20750;-74
2021/03/07 02:36:30;;;;;;;17.98;9.63;;;;;;;-2.83;86.72;99065.28;5048176;28;20193;-74
2021/03/07 02:38:59;;;;;;;17.58;10.15;;;;;;;-2.77;86.57;99056.50;5049404;28;20426;-75
2021/03/07 02:41:29;;;;;;;16.20;8.95;;;;;;;-2.73;87.04;99065.84;5051289;28;20055;-75
2021/03/07 02:43:57;;;;;;;18.60;8.57;;;;;;;-2.60;86.42;99066.03;5050969;28;20082;-75
2021/03/07 02:46:24;;;;;;;19.15;10.50;;;;;;;-2.66;86.48;99050.69;5049405;28;20028;-75
2021/03/07 02:48:56;;;;;;;18.30;9.60;;;;;;;-2.41;85.75;99051.28;5050552;28;20068;-75
2021/03/07 02:51:28;;;;;;;15.77;9.07;;;;;;;-2.55;86.04;99055.59;5050668;28;20029;-75
2021/03/07 02:53:57;;;;;;;15.15;8.23;;;;;;;-2.57;86.22;99049.63;5050442;28;20025;-75
2021/03/07 02:56:23;;;;;;;17.73;8.93;;;;;;;-2.45;85.67;99048.13;5050521;28;20036;-75
2021/03/07 02:58:59;;;;;;;18.15;8.60;;;;;;;-2.59;86.01;99042.75;5050819;28;20032;-75
2021/03/07 03:01:25;;;;;;;17.83;9.60;;;;;;;-2.71;86.04;99047.75;5049885;28;20032;-75
2021/03/07 03:03:51;;;;;;;16.20;10.43;;;;;;;-2.79;86.85;99045.97;5051202;28;20029;-75
2021/03/07 03:06:17;;;;;;;12.57;8.35;;;;;;;-2.73;86.85;99050.63;5049586;28;20028;-75
2021/03/07 03:08:51;;;;;;;18.27;10.13;;;;;;;-2.60;86.26;99052.63;5049387;28;20170;-75
2021/03/07 03:11:19;;;;;;;17.38;9.35;;;;;;;-2.54;85.88;99051.09;5051406;28;20033;-75
2021/03/07 03:13:46;;;;;;;17.15;10.15;;;;;;;-2.77;86.51;99048.50;5051247;28;20028;-74
2021/03/07 03:16:14;;;;;;;20.75;10.73;;;;;;;-2.75;86.66;99039.25;5049423;28;20021;-75
2021/03/07 03:18:41;;;;;;;19.55;9.52;;;;;;;-2.80;86.34;99030.13;5050208;28;20166;-75
2021/03/07 03:21:12;;;;;;;18.20;8.52;;;;;;;-2.79;86.51;99039.81;5050400;28;20088;-75
2021/03/07 03:23:38;;;;;;;20.42;9.20;;;;;;;-2.72;86.50;99046.91;5049262;28;20028;-75
2021/03/07 03:26:04;;;;;;;18.48;10.15;;;;;;;-2.76;86.79;99044.81;5050375;28;20033;-75
2021/03/07 03:28:29;;;;;;;15.27;9.13;;;;;;;-2.86;87.08;99044.25;5049134;28;20017;-75
2021/03/07 03:30:56;;;;;;;19.10;10.15;;;;;;;-2.93;87.45;99037.94;5050541;28;20032;-75
2021/03/07 03:33:25;;;;;;;16.35;10.13;;;;;;;-2.96;87.38;99041.81;5051021;28;20032;-75
2021/03/07 03:35:51;;;;;;;17.85;9.20;;;;;;;-2.90;87.68;99035.75;5050062;28;20021;-75
2021/03/07 03:38:18;;;;;;;19.42;9.77;;;;;;;-2.78;87.36;99038.78;5050068;28;20094;-75
2021/03/07 03:40:47;;;;;;;16.70;10.63;;;;;;;-2.76;86.94;99039.44;5050331;28;20481;-75
2021/03/07 03:43:13;;;;;;;18.63;10.20;;;;;;;-2.93;87.45;99041.47;5048865;28;20025;-75
2021/03/07 03:45:41;;;;;;;22.10;10.82;;;;;;;-3.06;88.35;99038.56;5050704;28;20455;-75
2021/03/07 03:48:16;;;;;;;18.33;10.88;;;;;;;-3.03;88.59;99034.69;5050442;28;20029;-76
2021/03/07 03:50:44;;;;;;;18.55;12.05;;;;;;;-2.91;88.42;99038.59;5049380;28;20054;-75
2021/03/07 03:53:15;;;;;;;17.67;11.27;;;;;;;-2.84;87.58;99042.19;5051106;28;20033;-75
2021/03/07 03:55:45;;;;;;;18.77;11.23;;;;;;;-2.80;87.29;99035.47;5052766;28;20021;-75
2021/03/07 03:58:12;;;;;;;19.42;11.40;;;;;;;-2.80;87.33;99040.81;5052435;28;20040;-80
2021/03/07 04:00:40;;;;;;;20.55;10.48;;;;;;;-2.95;87.55;99040.81;5050102;28;20111;-75
2021/03/07 04:03:10;;;;;;;24.60;10.85;;;;;;;-3.04;87.71;99036.56;5053276;28;20123;-75
2021/03/07 04:05:35;;;;;;;18.92;10.63;;;;;;;-2.92;87.41;99040.44;5053637;28;20394;-75
2021/03/07 04:08:01;;;;;;;20.10;9.93;;;;;;;-2.93;86.96;99028.09;5053859;28;20028;-76
2021/03/07 04:10:28;;;;;;;15.15;9.63;;;;;;;-2.96;87.48;99049.00;5053291;28;20456;-76
2021/03/07 04:12:59;;;;;;;19.58;9.82;;;;;;;-2.83;87.35;99041.19;5052896;28;20021;-75
2021/03/07 04:15:27;;;;;;;14.15;9.50;;;;;;;-2.88;87.18;99040.94;5051802;28;20013;-76
2021/03/07 04:17:54;;;;;;;17.42;9.43;;;;;;;-2.91;87.47;99043.94;5053051;28;20033;-74
2021/03/07 04:20:20;;;;;;;23.25;11.00;;;;;;;-2.91;87.17;99041.25;5053092;28;20052;-76
2021/03/07 04:22:48;;;;;;;15.82;8.75;;;;;;;-2.90;87.50;99045.59;5052142;28;20470;-76
2021/03/07 04:25:14;;;;;;;18.42;9.15;;;;;;;-3.04;87.15;99041.09;5053463;28;20029;-75
2021/03/07 04:27:40;;;;;;;18.95;9.68;;;;;;;-3.11;87.89;99040.13;5051774;28;20029;-75
2021/03/07 04:30:07;;;;;;;15.73;8.70;;;;;;;-2.91;87.71;99046.59;5052855;28;20037;-75
2021/03/07 04:32:34;;;;;;;21.15;9.40;;;;;;;-2.79;86.73;99026.44;5052607;28;20398;-75
2021/03/07 04:35:02;;;;;;;18.05;11.07;;;;;;;-3.04;87.42;99030.38;5053005;28;20490;-75
2021/03/07 04:37:27;;;;;;;18.98;10.27;;;;;;;-3.17;87.91;99027.50;5052602;28;20052;-75
2021/03/07 04:39:53;;;;;;;17.63;10.65;;;;;;;-3.26;87.61;99029.41;5053096;28;20033;-74
2021/03/07 04:42:19;;;;;;;16.70;8.82;;;;;;;-3.00;86.95;99026.31;5051393;28;20094;-75
2021/03/07 04:44:45;;;;;;;15.77;9.70;;;;;;;-3.05;87.43;99031.38;5051415;28;20031;-75
2021/03/07 04:47:11;;;;;;;23.17;9.27;;;;;;;-2.98;87.28;99013.59;5052508;28;20028;-75
2021/03/07 04:49:36;;;;;;;16.23;8.85;;;;;;;-3.02;87.17;99015.81;5052742;28;20029;-75
2021/03/07 04:52:02;;;;;;;16.55;9.68;;;;;;;-3.10;87.54;99028.44;5051384;28;20473;-76
2021/03/07 04:54:28;;;;;;;17.67;8.02;;;;;;;-3.26;88.33;99022.19;5052270;28;20431;-75
2021/03/07 04:56:53;;;;;;;17.40;9.25;;;;;;;-3.27;88.25;99020.56;5052589;28;20116;-75
2021/03/07 04:59:19;;;;;;;17.73;8.32;;;;;;;-3.21;87.96;99015.50;5052178;28;20029;-75
2021/03/07 05:01:44;;;;;;;15.85;8.48;;;;;;;-3.39;88.29;99018.50;5051179;28;20466;-75
2021/03/07 05:04:10;;;;;;;14.82;8.45;;;;;;;-3.40;88.64;99016.81;5052792;28;20053;-76
2021/03/07 05:06:40;;;;;;;16.38;9.32;;;;;;;-3.32;88.40;99020.25;5052493;28;20033;-75
2021/03/07 05:09:09;;;;;;;13.70;9.18;;;;;;;-3.27;88.60;99017.88;5052496;28;20549;-75
2021/03/07 05:11:35;;;;;;;15.30;7.65;;;;;;;-3.13;87.59;99015.44;5052280;28;20478;-75
2021/03/07 05:14:02;;;;;;;11.77;8.73;;;;;;;-3.37;87.70;99014.63;5051740;28;20104;-75
2021/03/07 05:16:28;;;;;;;13.80;8.38;;;;;;;-3.41;88.52;98999.94;5052220;28;20490;-75
2021/03/07 05:18:54;;;;;;;17.55;9.88;;;;;;;-3.36;88.52;99010.94;5052175;28;20033;-75
2021/03/07 05:21:19;;;;;;;11.05;7.05;;;;;;;-3.25;87.80;99012.34;5052218;28;20048;-74
2021/03/07 05:23:45;;;;;;;12.20;8.18;;;;;;;-3.34;87.64;99013.44;5051741;28;20029;-75
2021/03/07 05:26:11;;;;;;;15.32;8.40;;;;;;;-3.42;88.04;99009.00;5047773;28;20044;-76
2021/03/07 05:28:36;;;;;;;18.58;9.30;;;;;;;-3.39;88.11;99015.81;5032207;28;20026;-75
2021/03/07 05:31:03;;;;;;;16.17;8.10;;;;;;;-3.45;88.38;99016.56;5032227;28;20029;-75
2021/03/07 05:33:29;;;;;;;11.82;8.40;;;;;;;-3.31;88.07;99019.25;5032350;28;20781;-75
2021/03/07 05:35:54;;;;;;;13.10;7.47;;;;;;;-3.36;87.76;99010.13;5032258;28;20022;-75
2021/03/07 05:38:20;;;;;;;17.33;9.07;;;;;;;-3.31;88.05;99013.91;5031785;28;20053;-75
2021/03/07 05:40:46;;;;;;;12.50;8.13;;;;;;;-3.38;88.34;99009.44;5034108;28;20022;-76
2021/03/07 05:43:11;;;;;;;13.75;8.52;;;;;;;-3.33;88.18;99004.41;5034594;28;20420;-75
2021/03/07 05:45:37;;;;;;;18.05;9.93;;;;;;;-3.26;87.63;98995.47;5031975;28;20044;-75
2021/03/07 05:48:02;;;;;;;14.82;9.90;;;;;;;-3.16;87.63;99005.09;5031851;28;20030;-76
2021/03/07 05:50:28;;;;;;;10.88;7.50;;;;;;;-3.16;87.25;99005.09;5031749;28;20517;-75
2021/03/07 05:52:57;;;;;;;13.57;9.18;;;;;;;-3.10;87.38;99004.34;5031930;28;20056;-76
2021/03/07 05:55:23;;;;;;;16.40;9.52;;;;;;;-2.94;87.31;99006.84;5031874;28;20098;-74
2021/03/07 05:57:49;;;;;;;14.98;8.18;;;;;;;-2.91;86.56;99004.63;5030074;28;20030;-75
2021/03/07 06:00:17;;;;;;;15.95;8.23;;;;;;;-2.92;86.52;98997.63;5030564;28;20411;-75
2021/03/07 06:02:43;;;;;;;13.48;7.85;;;;;;;-2.55;86.28;98999.38;5031939;28;20029;-75
2021/03/07 06:05:13;;;;;;;13.85;8.73;;;;;;;-2.67;85.75;98979.44;5031978;28;20044;-75
2021/03/07 06:07:39;;;;;;;12.70;8.23;;;;;;;-2.60;85.71;98998.28;5042595;28;20035;-75
2021/03/07 06:10:15;;;;;;;17.70;8.82;;;;;;;-2.36;85.11;98998.81;5031972;28;20052;-75
2021/03/07 06:12:42;;;;;;;;;;;;;;;-2.25;84.35;99000.16;5047844;28;20021;-75
2021/03/07 06:15:11;;;;;;;9.43;5.60;;;;;;;-2.32;84.40;99000.06;5052239;28;20381;-76
2021/03/07 06:17:41;;;;;;;14.55;8.27;;;;;;;-2.42;84.52;99004.91;5053716;28;20035;-77
2021/03/07 06:20:09;;;;;;;16.27;8.68;;;;;;;-2.25;84.02;98995.63;5050951;28;20033;-75
2021/03/07 06:22:36;;;;;;;14.52;9.48;;;;;;;-2.16;83.16;98991.81;5048541;28;20029;-75
2021/03/07 06:25:11;;;;;;;14.25;9.18;;;;;;;-1.94;82.23;98989.19;5048724;28;20040;-75
2021/03/07 06:27:36;;;;;;;16.63;9.10;;;;;;;-1.90;82.23;98993.13;5049461;28;20021;-74
2021/03/07 06:30:29;;;;;;;16.13;9.60;;;;;;;-1.81;82.00;98992.81;5049033;28;20037;-74
2021/03/07 06:32:57;;;;;;;17.65;9.32;;;;;;;-1.96;81.75;98985.84;5047814;28;20033;-75
2021/03/07 06:35:24;;;;;;;23.50;10.35;;;;;;;-2.08;82.66;98985.53;5050794;28;20036;-72
2021/03/07 06:38:07;;;;;;;24.85;10.35;;;;;;;-1.65;81.34;98984.53;5048525;28;20510;-73
2021/03/07 06:40:37;;;;;;;15.60;10.32;;;;;;;-1.66;81.13;98984.72;5048691;28;20032;-71
2021/03/07 06:43:05;;;;;;;16.83;9.80;;;;;;;-1.54;79.91;98977.81;5050005;28;20474;-74
2021/03/07 06:45:41;;;;;;;20.73;11.63;;;;;;;-1.40;79.81;98987.63;5050297;28;20033;-73
2021/03/07 06:48:08;;;;;;;22.25;11.77;;;;;;;-1.77;80.71;98982.53;5050117;28;20074;-73
2021/03/07 06:50:35;;;;;;;18.05;10.45;;;;;;;-1.72;80.41;98972.91;5050103;28;20032;-73
2021/03/07 06:53:01;;;;;;;17.25;9.82;;;;;;;-1.62;80.05;98977.94;5037148;28;20018;-76
2021/03/07 06:55:42;;;;;;;18.80;9.82;;;;;;;-1.44;79.75;98982.84;5048705;28;20116;-76
2021/03/07 06:58:17;;;;;;;15.38;10.00;;;;;;;-1.49;79.81;98980.75;5041236;28;20056;-76
2021/03/07 07:00:44;;;;;;;14.50;9.45;;;;;;;-1.34;79.09;98972.59;5036653;28;20022;-76
2021/03/07 07:03:15;;;;;;;16.58;10.15;;;;;;;-1.07;77.90;98977.16;5029457;28;20104;-74
2021/03/07 07:05:45;;;;;;;21.85;11.50;;;;;;;-0.94;77.05;98973.72;5031899;28;20474;-76
2021/03/07 07:08:13;;;;;;;19.40;11.52;;;;;;;-0.21;75.22;98979.25;5031095;28;20112;-77
2021/03/07 07:11:07;;;;;;;21.20;11.35;;;;;;;0.16;73.46;98977.09;5041149;28;20071;-74
2021/03/07 07:13:51;;;;;;;21.13;12.68;;;;;;;1.26;69.07;98980.81;5050622;28;20592;-74
2021/03/07 07:16:17;;;;;;;14.18;8.88;;;;;;;1.05;68.96;98970.31;5052024;28;20048;-73
2021/03/07 07:18:44;;;;;;;15.27;10.10;;;;;;;0.95;69.16;98968.03;5050222;28;20497;-74
2021/03/07 07:21:16;;;;;;;20.58;12.35;;;;;;;1.39;66.92;98964.63;5050145;28;20082;-76
2021/03/07 07:23:41;;;;;;;22.70;11.65;;;;;;;2.16;64.07;98967.19;5048753;28;20486;-73
2021/03/07 07:26:07;;;;;;;33.60;15.40;;;;;;;2.93;61.29;98954.38;5049495;28;20127;-75
2021/03/07 07:28:35;;;;;;;15.50;8.55;;;;;;;3.51;58.81;98960.25;5050342;28;20120;-75
2021/03/07 07:31:18;;;;;;;15.88;8.80;;;;;;;2.05;61.66;98949.00;5050874;28;20029;-76
2021/03/07 07:33:59;;;;;;;15.85;8.80;;;;;;;2.41;61.33;98956.44;5049521;28;20029;-75
2021/03/07 07:36:36;;;;;;;17.05;8.85;;;;;;;1.74;63.94;98956.22;5051334;28;20565;-76
2021/03/07 07:39:05;;;;;;;14.43;9.38;;;;;;;1.59;63.91;98951.09;5054021;28;20033;-75
2021/03/07 07:41:32;;;;;;;13.55;8.63;;;;;;;1.59;64.32;98959.19;5052906;28;20021;-75
2021/03/07 07:43:59;;;;;;;13.98;9.43;;;;;;;1.76;63.67;98949.56;5053580;28;20463;-76
2021/03/07 07:46:24;;;;;;;13.38;8.23;;;;;;;2.53;62.25;98948.47;5051453;28;20496;-77
2021/03/07 07:48:53;;;;;;;12.13;7.82;;;;;;;4.47;55.81;98950.22;5051855;28;20033;-75
2021/03/07 07:51:27;;;;;;;11.93;9.02;;;;;;;4.69;54.82;98954.03;5051421;28;20032;-78
2021/03/07 07:53:53;;;;;;;12.80;8.38;;;;;;;4.90;54.29;98947.22;5052758;28;20078;-75
2021/03/07 07:56:48;;;;;;;13.85;9.10;;;;;;;5.21;50.99;98955.00;5042309;28;20504;-74
2021/03/07 07:59:13;;;;;;;12.68;8.68;;;;;;;5.94;50.36;98954.47;5039067;28;20049;-78
2021/03/07 08:01:56;;;;;;;10.75;8.13;;;;;;;6.29;49.03;98954.34;5049882;28;20071;-76
2021/03/07 08:04:27;;;;;;;11.95;7.47;;;;;;;6.31;47.94;98944.88;5052814;28;20025;-83
2021/03/07 08:06:54;;;;;;;14.10;7.03;;;;;;;7.60;44.97;98934.72;5052168;28;20489;-74
2021/03/07 08:09:35;;;;;;;12.90;8.60;;;;;;;6.95;46.11;98931.84;5052249;28;20029;-74
2021/03/07 08:12:39;;;;;;;12.15;8.48;;;;;;;6.75;45.52;98931.50;5049901;28;20029;-76
2021/03/07 08:15:24;;;;;;;12.63;7.85;;;;;;;6.77;46.81;98929.34;5049537;28;20052;-74
2021/03/07 08:17:57;;;;;;;12.75;7.53;;;;;;;7.98;43.82;98931.09;5045900;28;20029;-74
2021/03/07 08:20:38;;;;;;;15.27;8.20;;;;;;;7.16;45.28;98936.53;5055015;28;20032;-75
2021/03/07 08:23:08;;;;;;;12.27;8.95;;;;;;;6.17;47.83;98929.91;5054418;28;20389;-76
2021/03/07 08:25:46;;;;;;;13.98;8.65;;;;;;;7.97;44.31;98918.56;5055121;28;20474;-76
2021/03/07 08:28:26;;;;;;;12.55;7.38;;;;;;;6.95;44.69;98915.53;5052982;28;20386;-76
2021/03/07 08:31:03;;;;;;;9.32;7.07;;;;;;;8.79;42.28;98916.44;5056485;28;20045;-73
2021/03/07 08:33:34;;;;;;;7.43;6.57;;;;;;;9.27;39.88;98904.50;5062768;28;20025;-82
2021/03/07 08:36:19;;;;;;;14.82;8.35;;;;;;;7.40;43.26;98907.19;5065456;28;20017;-93
2021/03/07 08:38:53;;;;;;;10.40;6.85;;;;;;;7.40;43.75;98896.31;5063843;28;20063;-87
2021/03/07 08:41:24;;;;;;;10.20;7.35;;;;;;;6.34;45.49;98894.66;5064827;28;20041;-89
2021/03/07 08:43:55;;;;;;;8.15;6.80;;;;;;;7.87;44.04;98888.47;5062135;28;20086;-84
2021/03/07 08:46:26;;;;;;;16.40;8.13;;;;;;;7.75;43.79;98893.22;5058481;28;20087;-89
2021/03/07 08:48:53;;;;;;;14.07;8.70;;;;;;;9.19;41.04;98887.78;5059668;28;20023;-89
2021/03/07 08:51:29;;;;;;;11.60;7.72;;;;;;;9.06;41.14;98895.34;5059781;28;20056;-82
2021/03/07 08:54:01;;;;;;;11.90;8.30;;;;;;;9.49;40.15;98896.97;5057861;28;20047;-88
2021/03/07 08:56:27;;;;;;;12.20;7.70;;;;;;;9.25;39.62;98882.09;5045434;28;20028;-81
2021/03/07 08:58:53;;;;;;;11.95;7.93;;;;;;;9.47;39.76;98890.97;5058685;28;20025;-79
2021/03/07 09:01:19;;;;;;;10.52;6.55;;;;;;;9.51;40.74;98886.63;5059200;28;20029;-84
2021/03/07 09:03:59;;;;;;;10.40;6.95;;;;;;;7.63;42.54;98881.66;5053982;28;20035;-75
2021/03/07 09:06:34;;;;;;;10.95;7.80;;;;;;;7.87;41.46;98881.13;5054596;28;20044;-74
2021/03/07 09:09:18;;;;;;;12.35;7.88;;;;;;;8.75;40.70;98871.66;5052120;28;20021;-77
2021/03/07 09:11:57;;;;;;;11.50;7.82;;;;;;;9.05;39.94;98868.34;5054708;28;20114;-74
2021/03/07 09:14:40;;;;;;;18.35;12.15;;;;;;;8.41;41.32;98856.63;5051696;28;20183;-76
2021/03/07 09:17:23;;;;;;;12.85;8.30;;;;;;;10.43;38.43;98854.97;5052227;28;20025;-86
2021/03/07 09:19:49;;;;;;;12.35;8.75;;;;;;;9.53;38.03;98848.94;5052427;28;20024;-89
2021/03/07 09:22:25;;;;;;;15.05;8.80;;;;;;;8.17;41.99;98849.84;5057124;28;20090;-90
2021/03/07 09:25:04;;;;;;;15.93;8.38;;;;;;;10.03;39.12;98851.03;5058996;28;20021;-86
2021/03/07 09:27:35;;;;;;;10.18;7.72;;;;;;;8.97;38.60;98838.81;5056991;28;20028;-73
2021/03/07 09:30:07;;;;;;;11.90;7.18;;;;;;;8.72;39.27;98834.00;5051729;28;20110;-83
2021/03/07 09:32:51;;;;;;;9.18;6.65;;;;;;;10.56;36.94;98830.63;5053865;28;20629;-76
2021/03/07 09:35:31;;;;;;;9.93;7.05;;;;;;;8.76;38.39;98823.38;5052415;28;20035;-80
2021/03/07 09:38:02;;;;;;;7.88;6.00;;;;;;;9.37;38.33;98813.63;5045445;28;20053;-79
2021/03/07 09:40:31;;;;;;;8.25;6.18;;;;;;;9.23;36.27;98817.94;5048527;28;20036;-73
2021/03/07 09:43:06;;;;;;;10.45;6.93;;;;;;;9.73;36.72;98822.78;5049296;28;20086;-74
2021/03/07 09:45:33;;;;;;;10.10;7.55;;;;;;;9.07;37.40;98820.59;5044668;28;20117;-74
2021/03/07 09:47:58;;;;;;;7.68;6.28;;;;;;;9.12;37.72;98814.34;5050019;28;20028;-76
2021/03/07 09:50:24;;;;;;;9.20;7.03;;;;;;;9.41;37.77;98815.56;5051366;28;20113;-74
2021/03/07 09:52:51;;;;;;;10.80;6.00;;;;;;;10.60;36.03;98812.56;5048108;28;20035;-74
2021/03/07 09:55:27;;;;;;;10.20;4.45;;;;;;;11.93;30.94;98808.38;5050808;28;20032;-76
2021/03/07 09:58:06;;;;;;;;;;;;;;;10.81;30.11;98805.16;5049629;28;20037;-75
2021/03/07 10:00:33;;;;;;;6.95;4.90;;;;;;;11.62;29.87;98796.72;5048045;28;20431;-74
2021/03/07 10:02:59;;;;;;;4.93;3.80;;;;;;;13.03;25.09;98792.91;5047320;28;20031;-74
2021/03/07 10:05:25;;;;;;;9.48;4.50;;;;;;;11.77;27.63;98785.69;5048084;28;20024;-74
2021/03/07 10:07:51;;;;;;;7.90;4.90;;;;;;;11.49;28.26;98784.44;5049126;28;20029;-74
2021/03/07 10:10:23;;;;;;;7.80;4.93;;;;;;;11.72;26.44;98783.78;5047735;28;20025;-74
2021/03/07 10:12:50;;;;;;;7.22;5.38;;;;;;;10.75;28.31;98770.69;5047665;28;20025;-74
2021/03/07 10:15:35;;;;;;;5.90;4.93;;;;;;;11.97;28.09;98773.78;5049138;28;20136;-74
2021/03/07 10:18:03;;;;;;;5.35;4.25;;;;;;;11.47;28.26;98775.66;5051023;28;20037;-74
2021/03/07 10:20:43;;;;;;;7.18;5.18;;;;;;;11.52;27.85;98759.22;5049728;28;20037;-74
2021/03/07 10:23:10;;;;;;;6.70;4.57;;;;;;;10.99;28.38;98762.72;5050914;28;20116;-74
2021/03/07 10:25:38;;;;;;;6.28;4.35;;;;;;;11.69;26.82;98754.19;5049584;28;20508;-74
2021/03/07 10:28:19;;;;;;;7.57;5.13;;;;;;;11.29;28.04;98757.94;5050921;28;20060;-74
2021/03/07 10:30:45;;;;;;;7.25;5.00;;;;;;;11.84;27.12;98760.72;5050768;28;20524;-74
2021/03/07 10:33:31;;;;;;;8.73;5.25;;;;;;;12.99;26.17;98758.09;5050557;28;20049;-74
2021/03/07 10:36:17;;;;;;;10.23;6.07;;;;;;;12.42;27.03;98756.16;5048814;28;20063;-74
2021/03/07 10:38:51;;;;;;;7.13;4.70;;;;;;;11.74;25.83;98745.97;5050173;28;20076;-74
2021/03/07 10:41:31;;;;;;;6.13;4.45;;;;;;;11.58;25.35;98749.88;5050561;28;20111;-74
2021/03/07 10:44:04;;;;;;;7.40;4.65;;;;;;;11.47;25.74;98745.53;5050801;28;20023;-74
2021/03/07 10:46:30;;;;;;;5.00;3.78;;;;;;;11.96;24.86;98737.34;5050679;28;20107;-74
2021/03/07 10:48:57;;;;;;;7.55;3.80;;;;;;;12.62;23.52;98736.78;5051137;28;20112;-74
2021/03/07 10:51:24;;;;;;;4.85;3.58;;;;;;;11.47;24.19;98733.75;5056525;28;20428;-82
2021/03/07 10:53:50;;;;;;;7.07;3.47;;;;;;;11.09;25.64;98738.00;5057469;28;20043;-74
2021/03/07 10:56:16;;;;;;;5.28;3.40;;;;;;;11.18;24.94;98728.16;5050613;28;20241;-74
2021/03/07 10:58:41;;;;;;;3.20;2.67;;;;;;;9.66;25.47;98728.28;5050279;28;20549;-78
2021/03/07 11:01:07;;;;;;;4.55;2.60;;;;;;;11.35;24.54;98723.13;5051270;28;20131;-74
2021/03/07 11:03:33;;;;;;;5.82;3.50;;;;;;;10.39;25.29;98715.22;5050251;28;20379;-75
2021/03/07 11:05:59;;;;;;;5.03;3.38;;;;;;;10.13;26.65;98706.19;5050714;28;20032;-74
2021/03/07 11:08:24;;;;;;;4.57;3.35;;;;;;;11.38;25.81;98692.44;5050550;28;20142;-74
2021/03/07 11:10:49;;;;;;;6.78;4.50;;;;;;;11.33;24.70;98694.38;5051779;28;20021;-74
2021/03/07 11:13:15;;;;;;;4.68;4.00;;;;;;;10.09;26.72;98680.47;5054448;28;20040;-74
2021/03/07 11:15:40;;;;;;;5.88;3.35;;;;;;;10.23;26.57;98680.78;5052733;28;20025;-75
2021/03/07 11:18:06;;;;;;;5.22;3.92;;;;;;;11.74;24.51;98673.91;5052526;28;20098;-78
2021/03/07 11:20:31;;;;;;;6.25;4.20;;;;;;;11.20;24.67;98679.38;5052931;28;20029;-74
2021/03/07 11:22:57;;;;;;;3.97;3.17;;;;;;;11.03;24.50;98668.78;5054430;28;20051;-74
2021/03/07 11:25:22;;;;;;;4.22;2.90;;;;;;;10.79;25.10;98662.31;5053812;28;20082;-74
2021/03/07 11:27:49;;;;;;;5.78;3.67;;;;;;;9.61;26.86;98656.44;5052849;28;20029;-74
2021/03/07 11:30:14;;;;;;;6.28;4.00;;;;;;;8.58;27.86;98652.84;5052509;28;20029;-75
2021/03/07 11:32:40;;;;;;;5.35;3.60;;;;;;;7.73;29.41;98651.16;5053977;28;20025;-75
2021/03/07 11:35:06;;;;;;;3.70;2.95;;;;;;;7.28;29.46;98643.38;5054579;28;20032;-74
2021/03/07 11:37:31;;;;;;;5.20;3.53;;;;;;;6.98;30.72;98626.75;5053904;28;20041;-74
2021/03/07 11:39:57;;;;;;;5.85;4.38;;;;;;;6.86;31.53;98628.81;5054008;28;20489;-74